Terminal Aerodrome Forecast
Issued by NWS Amarillo, TX

Home | Current Version | Previous Version | Text Only | Print | Product List | Glossary On
Versions: 1 2 3 4 5 6 7 8 9 10 11 12 13 14 15 16
867
FTUS44 KAMA 210520
TAFGUY
TAF
KGUY 210520Z 2106/2206 07010KT 5SM RA BR SCT005 OVC010
     FM210800 VRB06KT 6SM BR OVC009
     FM211600 02010KT P6SM OVC015
     FM220500 35006KT P6SM BKN020=

USA.gov is the U.S. government's official web portal to all federal, state and local government web resources and services.